TAP757P EKCH-LPPT
Flight info
| Callsign | TAP757P |
|---|---|
| Flight time | N/A |
| Altitude | 34000 |
| Route | LANGO DCT CIV DCT MEDIL/N0450F350 DCT KOVIN DCT NIDUV DCT KIHVI UN872 ERIGA DCT FUJTI DCT BAKUP DCT BATAX DCT INBOM |
| Aircraft | A321/M-SDE3FGHIRWY/LB1 |
Departure
| Time | 2026-05-07 13:38 |
|---|---|
| Airport | Copenhagen Kastrup Airport (EKCH) |
Arrival
| Time | N/A |
|---|---|
| Airport | Lisbon Humberto Delgado Airport (LPPT) |
| Time | Latitude | Longitude | Altitude | Speed | Heading |
|---|---|---|---|---|---|
| 2026-05-07 13:07 | 55.62868 | 12.63998 | 17 ft | 0 kts | 11° |
| 2026-05-07 13:25 | 55.62862 | 12.63996 | 17 ft | 4 kts | 17° |
| 2026-05-07 13:25 | 55.62842 | 12.63986 | 18 ft | 4 kts | 18° |
| 2026-05-07 13:25 | 55.62830 | 12.63950 | 19 ft | 4 kts | 104° |
| 2026-05-07 13:26 | 55.62834 | 12.63921 | 17 ft | 4 kts | 104° |
| 2026-05-07 13:26 | 55.62840 | 12.63877 | 18 ft | 2 kts | 104° |
| 2026-05-07 13:26 | 55.62840 | 12.63874 | 18 ft | 0 kts | 104° |
| 2026-05-07 13:29 | 55.62840 | 12.63876 | 18 ft | 0 kts | 104° |
| 2026-05-07 13:29 | 55.62829 | 12.63918 | 19 ft | 10 kts | 122° |
| 2026-05-07 13:29 | 55.62742 | 12.63922 | 17 ft | 17 kts | 213° |
| 2026-05-07 13:29 | 55.62654 | 12.63855 | 17 ft | 12 kts | 161° |
| 2026-05-07 13:30 | 55.62608 | 12.63969 | 18 ft | 11 kts | 123° |
| 2026-05-07 13:30 | 55.62561 | 12.64095 | 17 ft | 13 kts | 123° |
| 2026-05-07 13:30 | 55.62489 | 12.64289 | 17 ft | 22 kts | 124° |
| 2026-05-07 13:30 | 55.62392 | 12.64517 | 17 ft | 23 kts | 123° |
| 2026-05-07 13:31 | 55.62308 | 12.64744 | 19 ft | 21 kts | 123° |
| 2026-05-07 13:31 | 55.62252 | 12.64823 | 17 ft | 6 kts | 203° |
| 2026-05-07 13:31 | 55.62225 | 12.64794 | 17 ft | 2 kts | 213° |
| 2026-05-07 13:31 | 55.62224 | 12.64793 | 17 ft | 0 kts | 213° |
| 2026-05-07 13:32 | 55.62220 | 12.64789 | 19 ft | 4 kts | 215° |
| 2026-05-07 13:33 | 55.62175 | 12.64734 | 19 ft | 8 kts | 213° |
| 2026-05-07 13:33 | 55.62139 | 12.64692 | 18 ft | 6 kts | 214° |
| 2026-05-07 13:33 | 55.62098 | 12.64643 | 17 ft | 11 kts | 213° |
| 2026-05-07 13:33 | 55.62014 | 12.64548 | 17 ft | 15 kts | 212° |
| 2026-05-07 13:34 | 55.61924 | 12.64507 | 17 ft | 13 kts | 179° |
| 2026-05-07 13:34 | 55.61772 | 12.64549 | 18 ft | 9 kts | 168° |
| 2026-05-07 13:34 | 55.61670 | 12.64558 | 17 ft | 22 kts | 203° |
| 2026-05-07 13:35 | 55.61557 | 12.64421 | 17 ft | 18 kts | 211° |
| 2026-05-07 13:35 | 55.61442 | 12.64300 | 18 ft | 23 kts | 213° |
| 2026-05-07 13:35 | 55.61303 | 12.64140 | 17 ft | 24 kts | 213° |
| 2026-05-07 13:35 | 55.61161 | 12.63977 | 17 ft | 24 kts | 212° |
| 2026-05-07 13:36 | 55.61027 | 12.63822 | 17 ft | 22 kts | 213° |
| 2026-05-07 13:36 | 55.60901 | 12.63677 | 19 ft | 21 kts | 213° |
| 2026-05-07 13:36 | 55.60829 | 12.63541 | 17 ft | 8 kts | 250° |
| 2026-05-07 13:36 | 55.60808 | 12.63549 | 18 ft | 4 kts | 144° |
| 2026-05-07 13:37 | 55.60753 | 12.63648 | 17 ft | 16 kts | 129° |
| 2026-05-07 13:37 | 55.60692 | 12.63797 | 18 ft | 14 kts | 117° |
| 2026-05-07 13:37 | 55.60714 | 12.63929 | 18 ft | 13 kts | 46° |
| 2026-05-07 13:37 | 55.60787 | 12.64044 | 19 ft | 20 kts | 41° |
| 2026-05-07 13:38 | 55.61059 | 12.64464 | 16 ft | 88 kts | 41° |
| 2026-05-07 13:38 | 55.61676 | 12.65419 | 17 ft | 145 kts | 41° |
| 2026-05-07 13:38 | 55.62496 | 12.66680 | 491 ft | 152 kts | 39° |
| 2026-05-07 13:38 | 55.63280 | 12.67896 | 1242 ft | 150 kts | 41° |
| 2026-05-07 13:39 | 55.64105 | 12.69182 | 1544 ft | 166 kts | 40° |
| 2026-05-07 13:39 | 55.65013 | 12.70612 | 1815 ft | 182 kts | 40° |
| 2026-05-07 13:39 | 55.66018 | 12.72156 | 1982 ft | 202 kts | 39° |
| 2026-05-07 13:39 | 55.67135 | 12.73814 | 2113 ft | 224 kts | 38° |
| 2026-05-07 13:40 | 55.68397 | 12.75673 | 2378 ft | 245 kts | 38° |
| 2026-05-07 13:40 | 55.69704 | 12.77684 | 3030 ft | 252 kts | 46° |
| 2026-05-07 13:40 | 55.70563 | 12.80408 | 3725 ft | 260 kts | 75° |
| 2026-05-07 13:40 | 55.70570 | 12.83619 | 4446 ft | 267 kts | 104° |
| 2026-05-07 13:41 | 55.69652 | 12.86499 | 5147 ft | 275 kts | 135° |
| 2026-05-07 13:41 | 55.68026 | 12.88245 | 5894 ft | 277 kts | 159° |
| 2026-05-07 13:41 | 55.66215 | 12.89422 | 6666 ft | 277 kts | 160° |
| 2026-05-07 13:41 | 55.64391 | 12.90580 | 7369 ft | 280 kts | 160° |
| 2026-05-07 13:42 | 55.62489 | 12.91364 | 8025 ft | 283 kts | 176° |
| 2026-05-07 13:42 | 55.60519 | 12.91062 | 8659 ft | 287 kts | 195° |
| 2026-05-07 13:42 | 55.58679 | 12.89689 | 9297 ft | 290 kts | 213° |
| 2026-05-07 13:42 | 55.57145 | 12.87365 | 9929 ft | 292 kts | 226° |
| 2026-05-07 13:43 | 55.55883 | 12.85045 | 10457 ft | 294 kts | 226° |
| 2026-05-07 13:43 | 55.54428 | 12.82388 | 10729 ft | 310 kts | 226° |
| 2026-05-07 13:43 | 55.53003 | 12.79393 | 10862 ft | 328 kts | 237° |
| 2026-05-07 13:43 | 55.51936 | 12.75729 | 10991 ft | 344 kts | 251° |
| 2026-05-07 13:44 | 55.51371 | 12.71554 | 11268 ft | 355 kts | 264° |
| 2026-05-07 13:44 | 55.51208 | 12.67189 | 11779 ft | 358 kts | 267° |
| 2026-05-07 13:44 | 55.51052 | 12.62790 | 12361 ft | 360 kts | 266° |
| 2026-05-07 13:44 | 55.50885 | 12.58372 | 12962 ft | 362 kts | 266° |
| 2026-05-07 13:45 | 55.50712 | 12.53931 | 13543 ft | 364 kts | 266° |
| 2026-05-07 13:45 | 55.50538 | 12.49463 | 14088 ft | 366 kts | 266° |
| 2026-05-07 13:45 | 55.50363 | 12.44973 | 14573 ft | 368 kts | 266° |
| 2026-05-07 13:45 | 55.50185 | 12.40510 | 15058 ft | 370 kts | 266° |
| 2026-05-07 13:46 | 55.50003 | 12.35965 | 15539 ft | 372 kts | 266° |
| 2026-05-07 13:46 | 55.49821 | 12.31401 | 16018 ft | 374 kts | 265° |
| 2026-05-07 13:46 | 55.49396 | 12.26810 | 16509 ft | 375 kts | 255° |
| 2026-05-07 13:46 | 55.48503 | 12.22483 | 16953 ft | 378 kts | 245° |
| 2026-05-07 13:47 | 55.47157 | 12.18492 | 17381 ft | 381 kts | 234° |
| 2026-05-07 13:47 | 55.45552 | 12.14763 | 17791 ft | 383 kts | 233° |
| 2026-05-07 13:47 | 55.43937 | 12.11013 | 18198 ft | 385 kts | 233° |
| 2026-05-07 13:47 | 55.42346 | 12.07294 | 18549 ft | 387 kts | 234° |
| 2026-05-07 13:48 | 55.40725 | 12.03495 | 18877 ft | 389 kts | 234° |
| 2026-05-07 13:48 | 55.39100 | 11.99684 | 19205 ft | 391 kts | 234° |
| 2026-05-07 13:48 | 55.37463 | 11.95858 | 19539 ft | 392 kts | 234° |
| 2026-05-07 13:48 | 55.35813 | 11.92022 | 19867 ft | 394 kts | 233° |
| 2026-05-07 13:49 | 55.34151 | 11.88172 | 20191 ft | 396 kts | 233° |
| 2026-05-07 13:49 | 55.32457 | 11.84264 | 20516 ft | 398 kts | 233° |
| 2026-05-07 13:49 | 55.30773 | 11.80385 | 20844 ft | 400 kts | 233° |
| 2026-05-07 13:49 | 55.29105 | 11.76541 | 21167 ft | 402 kts | 233° |
| 2026-05-07 13:50 | 55.27405 | 11.72628 | 21509 ft | 404 kts | 233° |
| 2026-05-07 13:50 | 55.25699 | 11.68698 | 21849 ft | 406 kts | 233° |
| 2026-05-07 13:50 | 55.24007 | 11.64636 | 22197 ft | 408 kts | 236° |
| 2026-05-07 13:50 | 55.22445 | 11.60551 | 22506 ft | 410 kts | 238° |
| 2026-05-07 13:51 | 55.20911 | 11.56320 | 22816 ft | 413 kts | 239° |
| 2026-05-07 13:51 | 55.19387 | 11.52035 | 23132 ft | 415 kts | 239° |
| 2026-05-07 13:51 | 55.17832 | 11.47677 | 23482 ft | 418 kts | 238° |
| 2026-05-07 13:51 | 55.16297 | 11.43433 | 23779 ft | 420 kts | 238° |
| 2026-05-07 13:52 | 55.14713 | 11.39126 | 24041 ft | 422 kts | 238° |
| 2026-05-07 13:52 | 55.13109 | 11.34815 | 24302 ft | 424 kts | 237° |
| 2026-05-07 13:52 | 55.11492 | 11.30493 | 24563 ft | 426 kts | 237° |
| 2026-05-07 13:52 | 55.09864 | 11.26158 | 24817 ft | 428 kts | 237° |
| 2026-05-07 13:53 | 55.08228 | 11.21803 | 25078 ft | 430 kts | 237° |
| 2026-05-07 13:53 | 55.06586 | 11.17433 | 25327 ft | 432 kts | 237° |
| 2026-05-07 13:53 | 55.04934 | 11.13046 | 25577 ft | 434 kts | 237° |
| 2026-05-07 13:53 | 55.03273 | 11.08643 | 25824 ft | 436 kts | 237° |
| 2026-05-07 13:54 | 55.01605 | 11.04222 | 26069 ft | 438 kts | 237° |
| 2026-05-07 13:54 | 54.99954 | 10.99848 | 26285 ft | 440 kts | 237° |
| 2026-05-07 13:54 | 54.98267 | 10.95387 | 26519 ft | 442 kts | 237° |
| 2026-05-07 13:54 | 54.96566 | 10.90901 | 26745 ft | 445 kts | 237° |
| 2026-05-07 13:55 | 54.94833 | 10.86436 | 26973 ft | 447 kts | 233° |
| 2026-05-07 13:55 | 54.92805 | 10.82327 | 27216 ft | 449 kts | 227° |
| 2026-05-07 13:55 | 54.90667 | 10.78354 | 27445 ft | 451 kts | 227° |
| 2026-05-07 13:55 | 54.88519 | 10.74363 | 27676 ft | 453 kts | 227° |
| 2026-05-07 13:56 | 54.86365 | 10.70358 | 27894 ft | 455 kts | 227° |
| 2026-05-07 13:56 | 54.84205 | 10.66339 | 28106 ft | 456 kts | 227° |
| 2026-05-07 13:56 | 54.82033 | 10.62311 | 28307 ft | 458 kts | 227° |
| 2026-05-07 13:56 | 54.79851 | 10.58273 | 28494 ft | 460 kts | 227° |
| 2026-05-07 13:57 | 54.77659 | 10.54225 | 28654 ft | 462 kts | 227° |
| 2026-05-07 13:57 | 54.75453 | 10.50164 | 28821 ft | 463 kts | 227° |
| 2026-05-07 13:57 | 54.73242 | 10.46102 | 29034 ft | 464 kts | 227° |
| 2026-05-07 13:57 | 54.71031 | 10.42046 | 29282 ft | 463 kts | 227° |
| 2026-05-07 13:58 | 54.68818 | 10.37992 | 29520 ft | 463 kts | 227° |
| 2026-05-07 13:58 | 54.66612 | 10.33948 | 29748 ft | 463 kts | 227° |
| 2026-05-07 13:58 | 54.64400 | 10.29903 | 29974 ft | 463 kts | 227° |
| 2026-05-07 13:58 | 54.62189 | 10.25866 | 30193 ft | 463 kts | 226° |
| 2026-05-07 13:59 | 54.59976 | 10.21834 | 30388 ft | 463 kts | 226° |
| 2026-05-07 13:59 | 54.57762 | 10.17811 | 30583 ft | 462 kts | 226° |
| 2026-05-07 13:59 | 54.55546 | 10.13794 | 30794 ft | 462 kts | 226° |
| 2026-05-07 13:59 | 54.53335 | 10.09794 | 31021 ft | 460 kts | 227° |
| 2026-05-07 14:00 | 54.51130 | 10.05803 | 31229 ft | 460 kts | 226° |
| 2026-05-07 14:00 | 54.48920 | 10.01807 | 31395 ft | 461 kts | 226° |
| 2026-05-07 14:00 | 54.46741 | 9.97873 | 31614 ft | 460 kts | 226° |
| 2026-05-07 14:00 | 54.44539 | 9.93905 | 31825 ft | 459 kts | 226° |
| 2026-05-07 14:01 | 54.42330 | 9.89933 | 32014 ft | 459 kts | 226° |
| 2026-05-07 14:01 | 54.40095 | 9.85919 | 32257 ft | 458 kts | 226° |
| 2026-05-07 14:01 | 54.37923 | 9.82026 | 32429 ft | 458 kts | 226° |
| 2026-05-07 14:01 | 54.35686 | 9.78026 | 32605 ft | 458 kts | 226° |
| 2026-05-07 14:02 | 54.33517 | 9.74159 | 32914 ft | 454 kts | 226° |
| 2026-05-07 14:02 | 54.31330 | 9.70267 | 33198 ft | 452 kts | 227° |
| 2026-05-07 14:02 | 54.29152 | 9.66393 | 33387 ft | 452 kts | 227° |
| 2026-05-07 14:02 | 54.26971 | 9.62518 | 33592 ft | 451 kts | 226° |
| 2026-05-07 14:03 | 54.24791 | 9.58652 | 33765 ft | 452 kts | 226° |
| 2026-05-07 14:03 | 54.22607 | 9.54783 | 33913 ft | 453 kts | 226° |
| 2026-05-07 14:03 | 54.20419 | 9.50913 | 34059 ft | 453 kts | 226° |
| 2026-05-07 14:04 | 54.16031 | 9.43167 | 34082 ft | 454 kts | 226° |
| 2026-05-07 14:04 | 54.11641 | 9.35449 | 34076 ft | 451 kts | 226° |
| 2026-05-07 14:05 | 54.07283 | 9.27822 | 34077 ft | 448 kts | 226° |
| 2026-05-07 14:05 | 54.02932 | 9.20223 | 34075 ft | 448 kts | 226° |
| 2026-05-07 14:06 | 53.98583 | 9.12642 | 34077 ft | 448 kts | 226° |
| 2026-05-07 14:06 | 53.94225 | 9.05084 | 34072 ft | 448 kts | 226° |
| 2026-05-07 14:07 | 53.89860 | 8.97542 | 34087 ft | 448 kts | 226° |
| 2026-05-07 14:07 | 53.85502 | 8.90024 | 34103 ft | 447 kts | 226° |
| 2026-05-07 14:08 | 53.81149 | 8.82519 | 34085 ft | 447 kts | 226° |
| 2026-05-07 14:08 | 53.76789 | 8.75030 | 34083 ft | 447 kts | 226° |
| 2026-05-07 14:09 | 53.72450 | 8.67620 | 34085 ft | 447 kts | 225° |
| 2026-05-07 14:09 | 53.68039 | 8.60131 | 34091 ft | 447 kts | 225° |
| 2026-05-07 14:10 | 53.63698 | 8.52766 | 34104 ft | 445 kts | 226° |
| 2026-05-07 14:10 | 53.59339 | 8.45374 | 34102 ft | 444 kts | 226° |
| 2026-05-07 14:11 | 53.54981 | 8.38021 | 34097 ft | 443 kts | 226° |
| 2026-05-07 14:11 | 53.50614 | 8.30696 | 34094 ft | 443 kts | 226° |
| 2026-05-07 14:12 | 53.46988 | 8.24613 | 34074 ft | 444 kts | 225° |
| 2026-05-07 14:12 | 53.42622 | 8.17300 | 34095 ft | 443 kts | 225° |
| 2026-05-07 14:13 | 53.38262 | 8.10028 | 34100 ft | 441 kts | 225° |
| 2026-05-07 14:13 | 53.33908 | 8.02791 | 34098 ft | 440 kts | 225° |
| 2026-05-07 14:14 | 53.29563 | 7.95589 | 34093 ft | 440 kts | 225° |
| 2026-05-07 14:14 | 53.25213 | 7.88411 | 34088 ft | 439 kts | 225° |
| 2026-05-07 14:15 | 53.20866 | 7.81255 | 34075 ft | 439 kts | 225° |
| 2026-05-07 14:15 | 53.16515 | 7.74101 | 34071 ft | 439 kts | 225° |
| 2026-05-07 14:16 | 53.12166 | 7.66966 | 34077 ft | 439 kts | 225° |
| 2026-05-07 14:16 | 53.07805 | 7.59844 | 34055 ft | 440 kts | 225° |
| 2026-05-07 14:17 | 53.03431 | 7.52734 | 34045 ft | 441 kts | 224° |
| 2026-05-07 14:17 | 52.99047 | 7.45620 | 34060 ft | 440 kts | 225° |
| 2026-05-07 14:18 | 52.94674 | 7.38537 | 34081 ft | 439 kts | 225° |
| 2026-05-07 14:18 | 52.90301 | 7.31501 | 34082 ft | 437 kts | 224° |
| 2026-05-07 14:19 | 52.85962 | 7.24541 | 34081 ft | 437 kts | 225° |
| 2026-05-07 14:19 | 52.81603 | 7.17544 | 34132 ft | 437 kts | 225° |
| 2026-05-07 14:19 | 52.79418 | 7.14039 | 34283 ft | 438 kts | 225° |
| 2026-05-07 14:20 | 52.77235 | 7.10539 | 34435 ft | 437 kts | 225° |
| 2026-05-07 14:20 | 52.75050 | 7.07046 | 34586 ft | 437 kts | 225° |
| 2026-05-07 14:20 | 52.72861 | 7.03553 | 34756 ft | 437 kts | 224° |
| 2026-05-07 14:20 | 52.70672 | 7.00069 | 34902 ft | 437 kts | 224° |
| 2026-05-07 14:21 | 52.68484 | 6.96602 | 35040 ft | 437 kts | 224° |
| 2026-05-07 14:21 | 52.64100 | 6.89660 | 35062 ft | 437 kts | 224° |
| 2026-05-07 14:22 | 52.59713 | 6.82731 | 35060 ft | 437 kts | 224° |
| 2026-05-07 14:22 | 52.55322 | 6.75813 | 35047 ft | 437 kts | 224° |
| 2026-05-07 14:23 | 52.50933 | 6.68919 | 35048 ft | 437 kts | 224° |
| 2026-05-07 14:23 | 52.46537 | 6.62040 | 35047 ft | 437 kts | 224° |
| 2026-05-07 14:24 | 52.42139 | 6.55163 | 35059 ft | 437 kts | 224° |
| 2026-05-07 14:24 | 52.37734 | 6.48293 | 35059 ft | 437 kts | 224° |
| 2026-05-07 14:25 | 52.33323 | 6.41442 | 35066 ft | 437 kts | 224° |
| 2026-05-07 14:25 | 52.28913 | 6.34610 | 35068 ft | 437 kts | 224° |
| 2026-05-07 14:26 | 52.24505 | 6.27800 | 35076 ft | 436 kts | 224° |
| 2026-05-07 14:26 | 52.20093 | 6.21011 | 35080 ft | 436 kts | 224° |
| 2026-05-07 14:27 | 52.15680 | 6.14239 | 35086 ft | 436 kts | 224° |
| 2026-05-07 14:27 | 52.11262 | 6.07491 | 35092 ft | 435 kts | 224° |
| 2026-05-07 14:28 | 52.06846 | 6.00761 | 35099 ft | 435 kts | 224° |
| 2026-05-07 14:28 | 52.02437 | 5.94052 | 35067 ft | 434 kts | 224° |
| 2026-05-07 14:29 | 51.98023 | 5.87349 | 35068 ft | 434 kts | 224° |
| 2026-05-07 14:29 | 51.93610 | 5.80667 | 35086 ft | 434 kts | 224° |
| 2026-05-07 14:30 | 51.89195 | 5.74001 | 35083 ft | 434 kts | 224° |
| 2026-05-07 14:30 | 51.84776 | 5.67343 | 35091 ft | 433 kts | 224° |
| 2026-05-07 14:31 | 51.80362 | 5.60711 | 35083 ft | 433 kts | 223° |
| 2026-05-07 14:31 | 51.75941 | 5.54102 | 35081 ft | 433 kts | 223° |
| 2026-05-07 14:32 | 51.71517 | 5.47510 | 35086 ft | 433 kts | 223° |
| 2026-05-07 14:32 | 51.67091 | 5.40923 | 35081 ft | 433 kts | 224° |
| 2026-05-07 14:33 | 51.62667 | 5.34345 | 35090 ft | 432 kts | 223° |
| 2026-05-07 14:33 | 51.58245 | 5.27793 | 35096 ft | 432 kts | 223° |
| 2026-05-07 14:34 | 51.53818 | 5.21266 | 35092 ft | 432 kts | 223° |
| 2026-05-07 14:34 | 51.49386 | 5.14760 | 35092 ft | 432 kts | 223° |
| 2026-05-07 14:35 | 51.44956 | 5.08268 | 35078 ft | 431 kts | 223° |
| 2026-05-07 14:35 | 51.40528 | 5.01777 | 35083 ft | 431 kts | 223° |
| 2026-05-07 14:36 | 51.36097 | 4.95298 | 35089 ft | 431 kts | 223° |
| 2026-05-07 14:36 | 51.31663 | 4.88843 | 35087 ft | 431 kts | 223° |
| 2026-05-07 14:37 | 51.27222 | 4.82411 | 35084 ft | 431 kts | 223° |
| 2026-05-07 14:37 | 51.20563 | 4.72778 | 35090 ft | 430 kts | 223° |
| 2026-05-07 14:38 | 51.16127 | 4.66367 | 35095 ft | 430 kts | 223° |
| 2026-05-07 14:38 | 51.11682 | 4.59982 | 35096 ft | 430 kts | 223° |
| 2026-05-07 14:39 | 51.07236 | 4.53603 | 35098 ft | 430 kts | 223° |
| 2026-05-07 14:39 | 51.02786 | 4.47235 | 35097 ft | 430 kts | 223° |
| 2026-05-07 14:40 | 50.98331 | 4.40886 | 35098 ft | 430 kts | 223° |
| 2026-05-07 14:40 | 50.93870 | 4.34557 | 35097 ft | 430 kts | 223° |
| 2026-05-07 14:41 | 50.89411 | 4.28235 | 35093 ft | 430 kts | 223° |
| 2026-05-07 14:41 | 50.84961 | 4.21932 | 35090 ft | 429 kts | 223° |
| 2026-05-07 14:42 | 50.80510 | 4.15629 | 35085 ft | 429 kts | 223° |
| 2026-05-07 14:42 | 50.76059 | 4.09360 | 35080 ft | 429 kts | 223° |
| 2026-05-07 14:43 | 50.71605 | 4.03110 | 35088 ft | 428 kts | 223° |
| 2026-05-07 14:43 | 50.67147 | 3.96875 | 35089 ft | 428 kts | 223° |
| 2026-05-07 14:44 | 50.62686 | 3.90650 | 35089 ft | 428 kts | 223° |
| 2026-05-07 14:44 | 50.58162 | 3.84545 | 35076 ft | 429 kts | 217° |
| 2026-05-07 14:45 | 50.52872 | 3.80178 | 35084 ft | 431 kts | 205° |
| 2026-05-07 14:45 | 50.47369 | 3.76425 | 35085 ft | 431 kts | 205° |
| 2026-05-07 14:46 | 50.41867 | 3.72684 | 35084 ft | 431 kts | 205° |
| 2026-05-07 14:46 | 50.36359 | 3.68952 | 35090 ft | 431 kts | 205° |
| 2026-05-07 14:47 | 50.30893 | 3.65255 | 35086 ft | 431 kts | 205° |
| 2026-05-07 14:47 | 50.25390 | 3.61545 | 35083 ft | 431 kts | 205° |
| 2026-05-07 14:48 | 50.19883 | 3.57826 | 35084 ft | 431 kts | 205° |
| 2026-05-07 14:48 | 50.14382 | 3.54122 | 35085 ft | 431 kts | 205° |
| 2026-05-07 14:49 | 50.08876 | 3.50435 | 35075 ft | 431 kts | 205° |
| 2026-05-07 14:49 | 50.03369 | 3.46764 | 35078 ft | 431 kts | 205° |
| 2026-05-07 14:50 | 49.97863 | 3.43089 | 35080 ft | 431 kts | 205° |
| 2026-05-07 14:50 | 49.92359 | 3.39428 | 35083 ft | 431 kts | 205° |
| 2026-05-07 14:51 | 49.86850 | 3.35767 | 35075 ft | 431 kts | 205° |
| 2026-05-07 14:51 | 49.81341 | 3.32125 | 35078 ft | 431 kts | 205° |
| 2026-05-07 14:52 | 49.75827 | 3.28496 | 35080 ft | 431 kts | 205° |
| 2026-05-07 14:52 | 49.70316 | 3.24863 | 35079 ft | 430 kts | 205° |
| 2026-05-07 14:53 | 49.64806 | 3.21247 | 35071 ft | 430 kts | 205° |
| 2026-05-07 14:53 | 49.59293 | 3.17645 | 35076 ft | 430 kts | 205° |
| 2026-05-07 14:54 | 49.53784 | 3.14041 | 35077 ft | 430 kts | 206° |
| 2026-05-07 14:54 | 49.49605 | 3.10038 | 35084 ft | 425 kts | 222° |
| 2026-05-07 14:55 | 49.45822 | 3.03160 | 35064 ft | 421 kts | 241° |
| 2026-05-07 14:55 | 49.42925 | 2.95323 | 35065 ft | 422 kts | 241° |
| 2026-05-07 14:56 | 49.40015 | 2.87489 | 35058 ft | 422 kts | 241° |
| 2026-05-07 14:56 | 49.37092 | 2.79674 | 35057 ft | 422 kts | 240° |
| 2026-05-07 14:57 | 49.34157 | 2.71864 | 35060 ft | 423 kts | 241° |
| 2026-05-07 14:57 | 49.31327 | 2.63973 | 35058 ft | 422 kts | 242° |
| 2026-05-07 14:58 | 49.28575 | 2.56017 | 35057 ft | 423 kts | 242° |
| 2026-05-07 14:58 | 49.25807 | 2.48077 | 35058 ft | 423 kts | 242° |
| 2026-05-07 14:59 | 49.23008 | 2.40165 | 35057 ft | 423 kts | 242° |
| 2026-05-07 14:59 | 49.20194 | 2.32261 | 35061 ft | 423 kts | 242° |
| 2026-05-07 15:00 | 49.17342 | 2.24397 | 35063 ft | 423 kts | 241° |
| 2026-05-07 15:00 | 49.14443 | 2.16579 | 35069 ft | 423 kts | 240° |
| 2026-05-07 15:01 | 49.11533 | 2.08764 | 35072 ft | 423 kts | 240° |
| 2026-05-07 15:01 | 49.08775 | 2.00839 | 35071 ft | 423 kts | 245° |
| 2026-05-07 15:02 | 49.06351 | 1.92736 | 35063 ft | 423 kts | 245° |
| 2026-05-07 15:02 | 49.03911 | 1.84608 | 35055 ft | 423 kts | 245° |
| 2026-05-07 15:03 | 49.01452 | 1.76470 | 35057 ft | 423 kts | 245° |
| 2026-05-07 15:03 | 48.98988 | 1.68352 | 35056 ft | 422 kts | 245° |
| 2026-05-07 15:04 | 48.96517 | 1.60234 | 35053 ft | 422 kts | 245° |
| 2026-05-07 15:04 | 48.94047 | 1.52119 | 35050 ft | 423 kts | 245° |
| 2026-05-07 15:05 | 48.91563 | 1.44011 | 35052 ft | 423 kts | 245° |
| 2026-05-07 15:05 | 48.89074 | 1.35912 | 35050 ft | 423 kts | 245° |
| 2026-05-07 15:06 | 48.86576 | 1.27817 | 35061 ft | 423 kts | 245° |
| 2026-05-07 15:06 | 48.84078 | 1.19723 | 35057 ft | 423 kts | 245° |
| 2026-05-07 15:07 | 48.81575 | 1.11648 | 35053 ft | 423 kts | 244° |
| 2026-05-07 15:07 | 48.79066 | 1.03579 | 35049 ft | 423 kts | 244° |
| 2026-05-07 15:08 | 48.76542 | 0.95518 | 35046 ft | 423 kts | 244° |
| 2026-05-07 15:08 | 48.73915 | 0.87530 | 35044 ft | 423 kts | 239° |
| 2026-05-07 15:09 | 48.70849 | 0.79929 | 35041 ft | 423 kts | 238° |
| 2026-05-07 15:09 | 48.67772 | 0.72342 | 35039 ft | 423 kts | 238° |
| 2026-05-07 15:10 | 48.64690 | 0.64767 | 35022 ft | 423 kts | 238° |
| 2026-05-07 15:10 | 48.61605 | 0.57196 | 35022 ft | 423 kts | 238° |
| 2026-05-07 15:11 | 48.58520 | 0.49642 | 35020 ft | 423 kts | 238° |
| 2026-05-07 15:11 | 48.55430 | 0.42085 | 35028 ft | 423 kts | 238° |
| 2026-05-07 15:12 | 48.52330 | 0.34546 | 35023 ft | 423 kts | 238° |
| 2026-05-07 15:12 | 48.49218 | 0.27007 | 35023 ft | 423 kts | 238° |
| 2026-05-07 15:13 | 48.46102 | 0.19470 | 35021 ft | 424 kts | 238° |
| 2026-05-07 15:13 | 48.42982 | 0.11935 | 35020 ft | 424 kts | 238° |
| 2026-05-07 15:14 | 48.39857 | 0.04416 | 35028 ft | 424 kts | 238° |
| 2026-05-07 15:14 | 48.36724 | -0.03101 | 35038 ft | 424 kts | 237° |
| 2026-05-07 15:15 | 48.33392 | -0.10417 | 35038 ft | 424 kts | 233° |
| 2026-05-07 15:15 | 48.29814 | -0.17467 | 35034 ft | 424 kts | 232° |
| 2026-05-07 15:16 | 48.26216 | -0.24494 | 35034 ft | 424 kts | 232° |
| 2026-05-07 15:16 | 48.22643 | -0.31545 | 35033 ft | 424 kts | 232° |
| 2026-05-07 15:17 | 48.19086 | -0.38525 | 35026 ft | 424 kts | 232° |
| 2026-05-07 15:17 | 48.15493 | -0.45529 | 35025 ft | 423 kts | 232° |
| 2026-05-07 15:18 | 48.11903 | -0.52511 | 35022 ft | 423 kts | 232° |
| 2026-05-07 15:18 | 48.08319 | -0.59481 | 35019 ft | 422 kts | 232° |
| 2026-05-07 15:19 | 48.04732 | -0.66442 | 35015 ft | 422 kts | 232° |
| 2026-05-07 15:19 | 48.01145 | -0.73382 | 35011 ft | 422 kts | 232° |
| 2026-05-07 15:20 | 47.97561 | -0.80304 | 35010 ft | 421 kts | 232° |
| 2026-05-07 15:20 | 47.93970 | -0.87207 | 35021 ft | 421 kts | 232° |
| 2026-05-07 15:21 | 47.90376 | -0.94095 | 35022 ft | 420 kts | 232° |
| 2026-05-07 15:21 | 47.86780 | -1.00964 | 35016 ft | 420 kts | 232° |
| 2026-05-07 15:22 | 47.83190 | -1.07828 | 35011 ft | 420 kts | 232° |
| 2026-05-07 15:22 | 47.79618 | -1.14640 | 34998 ft | 420 kts | 232° |
| 2026-05-07 15:23 | 47.76018 | -1.21481 | 35007 ft | 420 kts | 231° |
| 2026-05-07 15:23 | 47.72414 | -1.28307 | 35013 ft | 419 kts | 231° |
| 2026-05-07 15:24 | 47.68810 | -1.35122 | 35000 ft | 420 kts | 231° |
| 2026-05-07 15:24 | 47.65202 | -1.41931 | 34996 ft | 420 kts | 231° |
| 2026-05-07 15:25 | 47.61583 | -1.48721 | 34991 ft | 420 kts | 231° |
| 2026-05-07 15:25 | 47.57894 | -1.55424 | 34984 ft | 420 kts | 229° |
| 2026-05-07 15:26 | 47.54008 | -1.61803 | 34988 ft | 420 kts | 227° |
| 2026-05-07 15:26 | 47.50040 | -1.68143 | 35001 ft | 420 kts | 227° |
| 2026-05-07 15:27 | 47.46110 | -1.74525 | 34997 ft | 420 kts | 227° |
| 2026-05-07 15:27 | 47.42200 | -1.80941 | 34993 ft | 419 kts | 227° |
| 2026-05-07 15:28 | 47.38292 | -1.87337 | 34994 ft | 420 kts | 227° |
| 2026-05-07 15:28 | 47.34164 | -1.93387 | 35003 ft | 419 kts | 216° |
| 2026-05-07 15:29 | 47.29233 | -1.97957 | 35007 ft | 419 kts | 211° |
| 2026-05-07 15:29 | 47.24249 | -2.02402 | 35009 ft | 419 kts | 212° |
| 2026-05-07 15:30 | 47.19274 | -2.06855 | 35021 ft | 419 kts | 211° |
| 2026-05-07 15:30 | 47.14289 | -2.11301 | 35009 ft | 419 kts | 211° |
| 2026-05-07 15:31 | 47.09309 | -2.15723 | 35003 ft | 418 kts | 211° |
| 2026-05-07 15:31 | 47.04331 | -2.20143 | 35001 ft | 418 kts | 211° |
| 2026-05-07 15:32 | 46.99351 | -2.24547 | 35002 ft | 418 kts | 211° |
| 2026-05-07 15:32 | 46.94370 | -2.28934 | 34993 ft | 418 kts | 211° |
| 2026-05-07 15:33 | 46.89396 | -2.33310 | 35001 ft | 417 kts | 211° |
| 2026-05-07 15:33 | 46.84432 | -2.37671 | 35001 ft | 416 kts | 211° |
| 2026-05-07 15:34 | 46.79471 | -2.42028 | 34998 ft | 416 kts | 211° |
| 2026-05-07 15:34 | 46.74509 | -2.46379 | 35006 ft | 416 kts | 211° |
| 2026-05-07 15:35 | 46.69549 | -2.50728 | 34990 ft | 416 kts | 211° |
| 2026-05-07 15:35 | 46.64579 | -2.55067 | 34986 ft | 417 kts | 211° |
| 2026-05-07 15:36 | 46.59635 | -2.59367 | 34992 ft | 417 kts | 211° |
| 2026-05-07 15:36 | 46.54652 | -2.63687 | 34990 ft | 417 kts | 211° |
| 2026-05-07 15:37 | 46.49668 | -2.68010 | 34990 ft | 417 kts | 211° |
| 2026-05-07 15:37 | 46.44686 | -2.72323 | 34995 ft | 417 kts | 211° |
| 2026-05-07 15:38 | 46.39707 | -2.76619 | 34997 ft | 416 kts | 211° |
| 2026-05-07 15:38 | 46.34730 | -2.80901 | 35010 ft | 416 kts | 211° |
| 2026-05-07 15:39 | 46.29749 | -2.85180 | 34987 ft | 417 kts | 211° |
| 2026-05-07 15:39 | 46.24767 | -2.89468 | 34988 ft | 417 kts | 211° |
| 2026-05-07 15:40 | 46.19792 | -2.93800 | 34981 ft | 417 kts | 211° |
| 2026-05-07 15:40 | 46.14822 | -2.98140 | 34983 ft | 418 kts | 211° |
| 2026-05-07 15:41 | 46.10684 | -3.01741 | 34979 ft | 417 kts | 211° |
| 2026-05-07 15:41 | 46.05709 | -3.06051 | 34986 ft | 417 kts | 211° |
| 2026-05-07 15:42 | 46.00738 | -3.10347 | 34988 ft | 417 kts | 211° |
| 2026-05-07 15:42 | 45.95772 | -3.14633 | 34979 ft | 416 kts | 211° |
| 2026-05-07 15:43 | 45.90802 | -3.18911 | 34972 ft | 417 kts | 211° |
| 2026-05-07 15:43 | 45.85824 | -3.23193 | 34966 ft | 418 kts | 211° |
| 2026-05-07 15:44 | 45.80833 | -3.27468 | 34966 ft | 418 kts | 211° |
| 2026-05-07 15:44 | 45.75834 | -3.31745 | 34968 ft | 419 kts | 211° |
| 2026-05-07 15:45 | 45.70825 | -3.36015 | 34960 ft | 419 kts | 211° |
| 2026-05-07 15:45 | 45.65810 | -3.40289 | 34971 ft | 420 kts | 211° |
| 2026-05-07 15:46 | 45.58282 | -3.46683 | 34974 ft | 420 kts | 211° |